createdAt,value
2022-10-31T00:04:13.508Z,35.60
2022-10-31T00:09:20.567Z,32.70
2022-10-31T00:14:48.058Z,30.00
2022-10-31T00:19:55.112Z,32.70
2022-10-31T00:25:02.354Z,33.70
2022-10-31T00:30:11.245Z,35.20
2022-10-31T00:38:05.333Z,31.50
2022-10-31T00:48:17.527Z,33.70
2022-10-31T00:58:29.800Z,35.30
2022-10-31T01:03:39.702Z,33.80
2022-10-31T01:21:29.399Z,35.30
2022-10-31T01:26:36.816Z,30.60
2022-10-31T01:31:43.930Z,32.00
2022-10-31T01:36:52.610Z,31.80
2022-10-31T01:42:00.097Z,32.30
2022-10-31T01:47:13.794Z,33.50
2022-10-31T01:52:26.001Z,36.40
2022-10-31T01:57:34.428Z,40.40
2022-10-31T02:02:41.672Z,34.00
2022-10-31T02:07:54.433Z,34.40
2022-10-31T02:13:03.749Z,33.00
2022-10-31T02:18:11.421Z,35.50
2022-10-31T02:24:11.157Z,31.20
2022-10-31T02:29:42.384Z,38.50
2022-10-31T02:34:59.423Z,38.70
2022-10-31T02:40:13.511Z,38.10
2022-10-31T02:45:28.076Z,35.70
2022-10-31T02:59:09.529Z,36.60
2022-10-31T03:04:32.910Z,35.60
2022-10-31T03:09:45.436Z,32.20
2022-10-31T03:14:55.118Z,37.60
2022-10-31T03:20:01.714Z,31.90
2022-10-31T03:25:07.921Z,34.20
2022-10-31T03:30:12.699Z,36.70
2022-10-31T03:35:19.509Z,33.10
2022-10-31T03:40:27.225Z,34.30
2022-10-31T03:45:32.776Z,36.20
2022-10-31T03:50:44.173Z,37.80
2022-10-31T03:55:53.541Z,34.40
2022-10-31T04:00:58.653Z,34.60
2022-10-31T04:06:06.527Z,36.40
2022-10-31T04:11:13.936Z,34.50
2022-10-31T04:16:18.656Z,38.10
2022-10-31T04:21:29.406Z,35.30
2022-10-31T04:26:33.032Z,33.30
2022-10-31T04:31:36.591Z,35.20
2022-10-31T04:36:39.998Z,32.10
2022-10-31T04:41:43.661Z,33.80
2022-10-31T04:46:47.482Z,35.30
2022-10-31T04:51:51.148Z,33.60
2022-10-31T04:56:54.678Z,34.20
2022-10-31T05:01:58.279Z,34.00
2022-10-31T05:07:01.814Z,35.80
2022-10-31T05:12:05.838Z,33.30
2022-10-31T05:17:09.592Z,36.30
2022-10-31T05:22:13.365Z,41.30
2022-10-31T05:27:16.935Z,35.90
2022-10-31T05:32:20.610Z,38.60
2022-10-31T05:37:24.329Z,36.90
2022-10-31T05:42:27.803Z,33.40
2022-10-31T05:47:31.572Z,32.90
2022-10-31T05:52:35.000Z,31.80
2022-10-31T05:57:38.752Z,31.50
2022-10-31T06:02:42.171Z,34.00
2022-10-31T06:07:45.826Z,31.30
2022-10-31T06:12:49.564Z,32.20
2022-10-31T06:23:25.480Z,36.50
2022-10-31T06:28:28.986Z,35.40
2022-10-31T06:33:32.634Z,36.40
2022-10-31T06:38:36.539Z,39.20
2022-10-31T06:43:40.080Z,39.90
2022-10-31T06:48:43.699Z,37.20
2022-10-31T06:53:54.160Z,35.80
2022-10-31T06:58:57.926Z,39.20
2022-10-31T07:04:01.573Z,34.50
2022-10-31T07:09:05.701Z,33.90
2022-10-31T07:14:09.479Z,35.70
2022-10-31T07:19:13.340Z,31.20
2022-10-31T07:24:15.832Z,31.20
2022-10-31T07:29:19.262Z,30.90
2022-10-31T07:34:23.327Z,35.40
2022-10-31T07:39:27.023Z,31.00
2022-10-31T07:44:30.517Z,34.90
2022-10-31T07:49:33.955Z,27.40
2022-10-31T07:54:37.673Z,31.50
2022-10-31T07:59:41.289Z,24.20
2022-10-31T08:04:44.737Z,30.80
2022-10-31T08:09:48.448Z,30.70
2022-10-31T08:14:52.396Z,29.30
2022-10-31T08:19:56.155Z,27.30
2022-10-31T08:24:59.626Z,24.30
2022-10-31T08:30:03.084Z,18.80
2022-10-31T08:35:07.980Z,22.20
2022-10-31T08:40:13.496Z,22.70
2022-10-31T08:45:17.208Z,21.80
2022-10-31T08:50:20.731Z,27.60
2022-10-31T08:55:24.610Z,25.80
2022-10-31T09:00:28.296Z,20.50
2022-10-31T09:05:32.888Z,21.90
2022-10-31T09:10:37.706Z,19.80
2022-10-31T09:21:41.589Z,17.30
2022-10-31T09:26:45.279Z,16.40
2022-10-31T09:31:48.858Z,15.80
2022-10-31T09:36:53.783Z,15.70
2022-10-31T09:42:16.301Z,14.80
2022-10-31T09:47:30.699Z,15.20
2022-10-31T09:52:37.594Z,14.30
2022-10-31T09:57:42.857Z,17.80
2022-10-31T10:02:51.720Z,12.90
2022-10-31T10:08:02.506Z,15.60
2022-10-31T10:13:21.878Z,11.70
2022-10-31T10:18:34.631Z,14.50
2022-10-31T10:23:56.420Z,11.80
2022-10-31T10:29:09.433Z,15.20
2022-10-31T10:34:19.595Z,13.20
2022-10-31T10:39:27.007Z,11.00
2022-10-31T10:44:48.820Z,13.90
2022-10-31T10:49:53.294Z,15.00
2022-10-31T10:55:05.206Z,14.20
2022-10-31T11:00:19.717Z,12.20
2022-10-31T11:05:27.033Z,13.30
2022-10-31T11:10:30.611Z,9.00
2022-10-31T11:21:27.842Z,12.70
2022-10-31T11:26:36.511Z,12.80
2022-10-31T11:31:44.471Z,11.00
2022-10-31T11:36:52.210Z,13.90
2022-10-31T11:42:08.619Z,10.30
2022-10-31T11:47:19.772Z,13.30
2022-10-31T11:52:31.715Z,10.80
2022-10-31T11:57:47.857Z,14.70
2022-10-31T12:03:07.912Z,11.30
2022-10-31T12:08:16.389Z,12.60
2022-10-31T12:13:35.681Z,11.40
2022-10-31T12:18:55.262Z,11.60
2022-10-31T12:24:16.228Z,12.80
2022-10-31T12:29:38.580Z,12.50
2022-10-31T12:46:59.107Z,13.80
2022-10-31T12:52:18.649Z,14.50
2022-10-31T12:57:30.816Z,13.90
2022-10-31T13:02:44.934Z,15.70
2022-10-31T13:07:57.874Z,15.90
2022-10-31T13:13:14.473Z,11.50
2022-10-31T13:18:30.129Z,14.30
2022-10-31T13:23:55.017Z,11.50
2022-10-31T13:29:08.066Z,12.10
2022-10-31T13:34:29.547Z,15.60
2022-10-31T13:39:52.759Z,13.10
2022-10-31T13:45:13.682Z,14.60
2022-10-31T13:50:26.506Z,16.80
2022-10-31T13:55:44.744Z,15.00
2022-10-31T14:01:05.548Z,11.80
2022-10-31T14:06:14.226Z,16.40
2022-10-31T14:11:32.999Z,18.40
2022-10-31T14:16:45.732Z,14.50
2022-10-31T14:21:53.439Z,13.60
2022-10-31T14:27:02.264Z,15.30
2022-10-31T14:32:21.815Z,15.80
2022-10-31T14:38:00.716Z,14.70
2022-10-31T14:43:31.059Z,17.90
2022-10-31T14:48:54.445Z,17.00
2022-10-31T14:54:03.680Z,14.10
2022-10-31T14:59:17.664Z,17.90
2022-10-31T15:04:28.012Z,16.50
2022-10-31T15:09:37.923Z,16.20
2022-10-31T15:14:44.822Z,13.50
2022-10-31T15:19:52.488Z,13.50
2022-10-31T15:24:59.819Z,16.00
2022-10-31T15:30:18.449Z,16.40
2022-10-31T15:35:27.734Z,14.50
2022-10-31T15:40:35.004Z,15.40
2022-10-31T15:45:44.000Z,15.00
2022-10-31T15:50:54.878Z,18.20
2022-10-31T15:56:04.495Z,17.80
2022-10-31T16:01:25.408Z,15.50
2022-10-31T16:06:33.812Z,17.70
2022-10-31T16:11:42.403Z,15.60
2022-10-31T16:16:53.613Z,22.90
2022-10-31T16:22:09.068Z,24.40
2022-10-31T16:27:24.966Z,17.60
2022-10-31T16:32:35.864Z,20.30
2022-10-31T16:37:43.839Z,17.90
2022-10-31T17:24:45.947Z,25.50
2022-10-31T17:29:52.880Z,30.20
2022-10-31T17:35:00.294Z,26.60
2022-10-31T17:40:08.994Z,27.70
2022-10-31T17:45:16.219Z,25.80
2022-10-31T17:50:25.300Z,31.90
2022-10-31T17:55:37.126Z,32.80
2022-10-31T18:00:47.417Z,34.60
2022-10-31T18:05:59.308Z,34.20
2022-10-31T18:11:12.301Z,39.50
2022-10-31T18:16:20.435Z,40.40
2022-10-31T18:21:27.743Z,45.50
2022-10-31T18:26:34.999Z,37.80
2022-10-31T18:31:42.489Z,40.80
2022-10-31T18:36:50.007Z,45.20
2022-10-31T18:41:57.358Z,48.70
2022-10-31T18:47:04.608Z,48.80
2022-10-31T18:52:12.171Z,48.50
2022-10-31T18:57:19.507Z,44.00
2022-10-31T19:02:26.616Z,47.30
2022-10-31T19:07:34.090Z,42.50
2022-10-31T19:12:41.382Z,45.10
2022-10-31T19:17:48.402Z,44.40
2022-10-31T19:22:55.500Z,46.60
2022-10-31T19:28:02.662Z,48.90
2022-10-31T19:33:10.044Z,44.80
2022-10-31T19:38:17.127Z,45.40
2022-10-31T19:48:32.291Z,49.40
2022-10-31T19:53:40.328Z,55.40
2022-10-31T19:58:48.045Z,49.50
2022-10-31T20:03:55.511Z,56.60
2022-10-31T20:09:04.761Z,61.10
2022-10-31T20:14:14.594Z,57.60
2022-10-31T20:19:22.335Z,56.90
2022-10-31T20:24:32.815Z,52.60
2022-10-31T20:29:39.850Z,50.20
2022-10-31T20:39:55.682Z,51.80
2022-10-31T20:45:04.331Z,53.60
2022-10-31T20:50:12.205Z,59.40
2022-10-31T20:55:19.167Z,49.70
2022-10-31T21:00:26.285Z,54.80
2022-10-31T21:10:40.777Z,59.50
2022-10-31T21:15:48.442Z,54.90
2022-10-31T21:20:56.016Z,52.50
2022-10-31T21:26:08.031Z,55.00
2022-10-31T21:31:17.325Z,58.00
2022-10-31T21:36:26.623Z,53.80
2022-10-31T21:41:33.875Z,51.30
2022-10-31T21:46:41.008Z,49.40
2022-10-31T21:51:47.820Z,53.60
2022-10-31T21:56:55.237Z,52.00
2022-10-31T22:02:02.754Z,55.00
2022-10-31T22:07:09.805Z,50.00
2022-10-31T22:12:18.674Z,46.60
2022-10-31T22:17:28.196Z,48.90
2022-10-31T22:22:35.204Z,51.40
2022-10-31T22:32:50.005Z,48.00
2022-10-31T22:37:56.932Z,57.50
2022-10-31T22:48:10.383Z,59.50
2022-10-31T22:53:17.415Z,57.80
2022-10-31T22:58:24.355Z,48.10
2022-10-31T23:03:31.263Z,58.30
2022-10-31T23:08:39.848Z,47.30
2022-10-31T23:14:14.404Z,49.60
2022-10-31T23:19:23.933Z,54.90
2022-10-31T23:24:33.856Z,50.10
2022-10-31T23:29:47.083Z,52.70
2022-10-31T23:34:55.603Z,52.40
2022-10-31T23:40:02.742Z,46.90
2022-10-31T23:45:11.317Z,52.70
2022-10-31T23:50:19.032Z,49.10
2022-10-31T23:55:26.267Z,50.40
